sensor_id;sensor_type;location;lat;lon;timestamp;P1;durP1;ratioP1;P2;durP2;ratioP2
17965;SDS011;9108;53.204;10.424;2023-03-24T00:01:28;7.72;;;3.20;;
17965;SDS011;9108;53.204;10.424;2023-03-24T00:03:56;9.98;;;3.20;;
17965;SDS011;9108;53.204;10.424;2023-03-24T00:06:26;9.27;;;3.30;;
17965;SDS011;9108;53.204;10.424;2023-03-24T00:08:58;8.25;;;3.33;;
17965;SDS011;9108;53.204;10.424;2023-03-24T00:11:30;8.25;;;3.42;;
17965;SDS011;9108;53.204;10.424;2023-03-24T00:13:59;8.30;;;3.40;;
17965;SDS011;9108;53.204;10.424;2023-03-24T00:16:27;7.88;;;3.30;;
17965;SDS011;9108;53.204;10.424;2023-03-24T00:18:55;8.65;;;3.28;;
17965;SDS011;9108;53.204;10.424;2023-03-24T00:21:23;10.80;;;3.88;;
17965;SDS011;9108;53.204;10.424;2023-03-24T00:23:53;9.80;;;3.67;;
17965;SDS011;9108;53.204;10.424;2023-03-24T00:26:24;11.02;;;3.60;;
17965;SDS011;9108;53.204;10.424;2023-03-24T00:28:53;8.32;;;3.50;;
17965;SDS011;9108;53.204;10.424;2023-03-24T00:31:24;11.25;;;3.60;;
17965;SDS011;9108;53.204;10.424;2023-03-24T00:33:51;8.47;;;3.50;;
17965;SDS011;9108;53.204;10.424;2023-03-24T00:36:20;9.15;;;3.42;;
17965;SDS011;9108;53.204;10.424;2023-03-24T00:38:50;8.73;;;3.80;;
17965;SDS011;9108;53.204;10.424;2023-03-24T00:41:19;8.63;;;3.70;;
17965;SDS011;9108;53.204;10.424;2023-03-24T00:43:52;9.52;;;3.95;;
17965;SDS011;9108;53.204;10.424;2023-03-24T00:46:31;8.82;;;3.72;;
17965;SDS011;9108;53.204;10.424;2023-03-24T00:48:59;8.95;;;3.80;;
17965;SDS011;9108;53.204;10.424;2023-03-24T00:51:30;10.68;;;3.88;;
17965;SDS011;9108;53.204;10.424;2023-03-24T00:53:58;8.33;;;4.00;;
17965;SDS011;9108;53.204;10.424;2023-03-24T00:56:31;11.57;;;3.90;;
17965;SDS011;9108;53.204;10.424;2023-03-24T00:58:59;12.73;;;4.20;;
17965;SDS011;9108;53.204;10.424;2023-03-24T01:01:31;11.00;;;3.88;;
17965;SDS011;9108;53.204;10.424;2023-03-24T01:04:01;12.32;;;4.15;;
17965;SDS011;9108;53.204;10.424;2023-03-24T01:06:30;10.95;;;3.92;;
17965;SDS011;9108;53.204;10.424;2023-03-24T01:09:01;9.55;;;3.90;;
17965;SDS011;9108;53.204;10.424;2023-03-24T01:11:33;12.13;;;3.97;;
17965;SDS011;9108;53.204;10.424;2023-03-24T01:14:01;10.40;;;3.85;;
17965;SDS011;9108;53.204;10.424;2023-03-24T01:16:37;11.18;;;4.10;;
17965;SDS011;9108;53.204;10.424;2023-03-24T01:19:05;10.43;;;4.00;;
17965;SDS011;9108;53.204;10.424;2023-03-24T01:21:36;11.20;;;3.97;;
17965;SDS011;9108;53.204;10.424;2023-03-24T01:24:06;9.07;;;4.10;;
17965;SDS011;9108;53.204;10.424;2023-03-24T01:26:36;10.32;;;4.30;;
17965;SDS011;9108;53.204;10.424;2023-03-24T01:29:04;8.23;;;4.40;;
17965;SDS011;9108;53.204;10.424;2023-03-24T01:31:31;11.70;;;4.40;;
17965;SDS011;9108;53.204;10.424;2023-03-24T01:33:59;11.20;;;4.45;;
17965;SDS011;9108;53.204;10.424;2023-03-24T01:36:26;9.98;;;4.20;;
17965;SDS011;9108;53.204;10.424;2023-03-24T01:38:53;9.50;;;4.45;;
17965;SDS011;9108;53.204;10.424;2023-03-24T01:41:29;11.65;;;4.47;;
17965;SDS011;9108;53.204;10.424;2023-03-24T01:46:47;10.15;;;4.47;;
17965;SDS011;9108;53.204;10.424;2023-03-24T01:49:24;11.27;;;4.68;;
17965;SDS011;9108;53.204;10.424;2023-03-24T01:51:53;11.43;;;4.68;;
17965;SDS011;9108;53.204;10.424;2023-03-24T01:54:21;11.45;;;4.45;;
17965;SDS011;9108;53.204;10.424;2023-03-24T01:56:52;13.05;;;4.68;;
17965;SDS011;9108;53.204;10.424;2023-03-24T01:59:23;11.82;;;4.47;;
17965;SDS011;9108;53.204;10.424;2023-03-24T02:01:54;11.95;;;4.57;;
17965;SDS011;9108;53.204;10.424;2023-03-24T02:04:27;11.55;;;4.55;;
17965;SDS011;9108;53.204;10.424;2023-03-24T02:06:54;12.00;;;4.57;;
17965;SDS011;9108;53.204;10.424;2023-03-24T02:09:25;9.73;;;4.70;;
17965;SDS011;9108;53.204;10.424;2023-03-24T02:11:55;10.93;;;5.00;;
17965;SDS011;9108;53.204;10.424;2023-03-24T02:14:25;13.23;;;4.90;;
17965;SDS011;9108;53.204;10.424;2023-03-24T02:17:03;14.98;;;4.78;;
17965;SDS011;9108;53.204;10.424;2023-03-24T02:22:41;12.68;;;5.38;;
17965;SDS011;9108;53.204;10.424;2023-03-24T02:25:24;12.20;;;4.93;;
17965;SDS011;9108;53.204;10.424;2023-03-24T02:28:19;12.90;;;5.05;;
17965;SDS011;9108;53.204;10.424;2023-03-24T02:30:53;14.13;;;5.10;;
17965;SDS011;9108;53.204;10.424;2023-03-24T02:36:47;11.77;;;5.05;;
17965;SDS011;9108;53.204;10.424;2023-03-24T02:42:24;13.00;;;5.10;;
17965;SDS011;9108;53.204;10.424;2023-03-24T02:45:00;13.23;;;5.15;;
17965;SDS011;9108;53.204;10.424;2023-03-24T02:47:34;12.10;;;5.15;;
17965;SDS011;9108;53.204;10.424;2023-03-24T02:50:08;12.00;;;5.60;;
17965;SDS011;9108;53.204;10.424;2023-03-24T02:52:41;12.30;;;5.20;;
17965;SDS011;9108;53.204;10.424;2023-03-24T02:55:12;12.73;;;5.45;;
17965;SDS011;9108;53.204;10.424;2023-03-24T02:57:43;11.90;;;5.35;;
17965;SDS011;9108;53.204;10.424;2023-03-24T03:00:18;13.43;;;5.43;;
17965;SDS011;9108;53.204;10.424;2023-03-24T03:02:47;13.43;;;5.80;;
17965;SDS011;9108;53.204;10.424;2023-03-24T03:05:20;12.03;;;5.70;;
17965;SDS011;9108;53.204;10.424;2023-03-24T03:07:54;12.98;;;5.72;;
17965;SDS011;9108;53.204;10.424;2023-03-24T03:10:26;12.55;;;5.68;;
17965;SDS011;9108;53.204;10.424;2023-03-24T03:12:58;12.43;;;6.20;;
17965;SDS011;9108;53.204;10.424;2023-03-24T03:15:33;12.82;;;6.03;;
17965;SDS011;9108;53.204;10.424;2023-03-24T03:18:04;12.60;;;5.80;;
17965;SDS011;9108;53.204;10.424;2023-03-24T03:20:33;13.23;;;6.03;;
17965;SDS011;9108;53.204;10.424;2023-03-24T03:23:08;13.35;;;6.28;;
17965;SDS011;9108;53.204;10.424;2023-03-24T03:25:40;12.75;;;5.97;;
17965;SDS011;9108;53.204;10.424;2023-03-24T03:28:16;16.42;;;6.57;;
17965;SDS011;9108;53.204;10.424;2023-03-24T03:30:46;13.20;;;6.03;;
17965;SDS011;9108;53.204;10.424;2023-03-24T03:33:15;14.47;;;6.20;;
17965;SDS011;9108;53.204;10.424;2023-03-24T03:35:52;14.05;;;6.07;;
17965;SDS011;9108;53.204;10.424;2023-03-24T03:38:21;13.70;;;6.15;;
17965;SDS011;9108;53.204;10.424;2023-03-24T03:40:50;13.80;;;6.30;;
17965;SDS011;9108;53.204;10.424;2023-03-24T03:43:21;15.68;;;6.45;;
17965;SDS011;9108;53.204;10.424;2023-03-24T03:45:49;16.77;;;6.20;;
17965;SDS011;9108;53.204;10.424;2023-03-24T03:48:18;12.43;;;5.80;;
17965;SDS011;9108;53.204;10.424;2023-03-24T03:50:50;16.40;;;6.13;;
17965;SDS011;9108;53.204;10.424;2023-03-24T03:53:18;12.75;;;5.80;;
17965;SDS011;9108;53.204;10.424;2023-03-24T03:55:46;14.07;;;6.20;;
17965;SDS011;9108;53.204;10.424;2023-03-24T03:58:24;12.77;;;5.97;;
17965;SDS011;9108;53.204;10.424;2023-03-24T04:00:53;14.43;;;6.00;;
17965;SDS011;9108;53.204;10.424;2023-03-24T04:03:26;12.60;;;5.83;;
17965;SDS011;9108;53.204;10.424;2023-03-24T04:05:57;14.30;;;5.93;;
17965;SDS011;9108;53.204;10.424;2023-03-24T04:08:44;12.90;;;5.88;;
17965;SDS011;9108;53.204;10.424;2023-03-24T04:17:28;13.73;;;5.60;;
17965;SDS011;9108;53.204;10.424;2023-03-24T04:20:05;14.90;;;6.20;;
17965;SDS011;9108;53.204;10.424;2023-03-24T04:22:42;13.55;;;5.68;;
17965;SDS011;9108;53.204;10.424;2023-03-24T04:25:19;15.40;;;6.47;;
17965;SDS011;9108;53.204;10.424;2023-03-24T04:28:03;12.95;;;6.10;;
17965;SDS011;9108;53.204;10.424;2023-03-24T04:30:47;13.80;;;6.00;;
17965;SDS011;9108;53.204;10.424;2023-03-24T04:33:32;14.10;;;6.38;;
17965;SDS011;9108;53.204;10.424;2023-03-24T04:36:04;10.88;;;5.57;;
17965;SDS011;9108;53.204;10.424;2023-03-24T04:38:57;13.07;;;5.85;;
17965;SDS011;9108;53.204;10.424;2023-03-24T04:41:28;11.87;;;6.00;;
17965;SDS011;9108;53.204;10.424;2023-03-24T04:43:59;13.23;;;6.00;;
17965;SDS011;9108;53.204;10.424;2023-03-24T04:46:32;11.60;;;5.50;;
17965;SDS011;9108;53.204;10.424;2023-03-24T04:49:05;11.20;;;5.68;;
17965;SDS011;9108;53.204;10.424;2023-03-24T04:54:24;11.75;;;5.22;;
17965;SDS011;9108;53.204;10.424;2023-03-24T04:56:58;10.97;;;5.53;;
17965;SDS011;9108;53.204;10.424;2023-03-24T04:59:36;11.52;;;4.93;;
17965;SDS011;9108;53.204;10.424;2023-03-24T05:02:41;10.95;;;5.18;;
17965;SDS011;9108;53.204;10.424;2023-03-24T05:05:39;8.90;;;4.63;;
17965;SDS011;9108;53.204;10.424;2023-03-24T05:08:13;9.60;;;5.00;;
17965;SDS011;9108;53.204;10.424;2023-03-24T05:10:50;9.70;;;4.68;;
17965;SDS011;9108;53.204;10.424;2023-03-24T05:13:18;12.47;;;4.73;;
17965;SDS011;9108;53.204;10.424;2023-03-24T05:15:45;10.80;;;4.68;;
17965;SDS011;9108;53.204;10.424;2023-03-24T05:18:14;10.10;;;4.65;;
17965;SDS011;9108;53.204;10.424;2023-03-24T05:20:55;10.82;;;4.78;;
17965;SDS011;9108;53.204;10.424;2023-03-24T05:23:24;9.60;;;5.00;;
17965;SDS011;9108;53.204;10.424;2023-03-24T05:25:51;7.03;;;4.43;;
17965;SDS011;9108;53.204;10.424;2023-03-24T05:28:22;10.70;;;4.80;;
17965;SDS011;9108;53.204;10.424;2023-03-24T05:30:50;9.15;;;4.47;;
17965;SDS011;9108;53.204;10.424;2023-03-24T05:33:18;9.80;;;4.60;;
17965;SDS011;9108;53.204;10.424;2023-03-24T05:35:46;8.23;;;4.20;;
17965;SDS011;9108;53.204;10.424;2023-03-24T05:38:18;9.15;;;4.57;;
17965;SDS011;9108;53.204;10.424;2023-03-24T05:40:50;8.65;;;4.50;;
17965;SDS011;9108;53.204;10.424;2023-03-24T05:43:24;8.43;;;4.27;;
17965;SDS011;9108;53.204;10.424;2023-03-24T05:46:05;7.68;;;4.03;;
17965;SDS011;9108;53.204;10.424;2023-03-24T05:48:39;7.05;;;4.38;;
17965;SDS011;9108;53.204;10.424;2023-03-24T05:51:40;7.03;;;3.80;;
17965;SDS011;9108;53.204;10.424;2023-03-24T05:54:09;9.07;;;4.35;;
17965;SDS011;9108;53.204;10.424;2023-03-24T05:56:39;7.45;;;4.30;;
17965;SDS011;9108;53.204;10.424;2023-03-24T06:01:55;8.38;;;4.25;;
17965;SDS011;9108;53.204;10.424;2023-03-24T06:04:23;7.75;;;4.45;;
17965;SDS011;9108;53.204;10.424;2023-03-24T06:06:53;7.40;;;4.10;;
17965;SDS011;9108;53.204;10.424;2023-03-24T06:09:28;7.88;;;4.13;;
17965;SDS011;9108;53.204;10.424;2023-03-24T06:11:56;7.15;;;4.00;;
17965;SDS011;9108;53.204;10.424;2023-03-24T06:14:34;7.53;;;4.10;;
17965;SDS011;9108;53.204;10.424;2023-03-24T06:17:06;7.32;;;4.10;;
17965;SDS011;9108;53.204;10.424;2023-03-24T06:22:50;9.02;;;4.25;;
17965;SDS011;9108;53.204;10.424;2023-03-24T06:25:24;6.60;;;4.10;;
17965;SDS011;9108;53.204;10.424;2023-03-24T06:28:10;6.72;;;4.10;;
17965;SDS011;9108;53.204;10.424;2023-03-24T06:30:38;8.70;;;4.50;;
17965;SDS011;9108;53.204;10.424;2023-03-24T06:33:11;6.85;;;4.72;;
17965;SDS011;9108;53.204;10.424;2023-03-24T06:35:38;8.70;;;5.30;;
17965;SDS011;9108;53.204;10.424;2023-03-24T06:38:08;6.90;;;4.82;;
17965;SDS011;9108;53.204;10.424;2023-03-24T06:40:50;10.10;;;5.10;;
17965;SDS011;9108;53.204;10.424;2023-03-24T06:43:18;9.88;;;5.82;;
17965;SDS011;9108;53.204;10.424;2023-03-24T06:45:51;9.05;;;5.22;;
17965;SDS011;9108;53.204;10.424;2023-03-24T06:48:20;8.85;;;5.38;;
17965;SDS011;9108;53.204;10.424;2023-03-24T06:50:47;9.00;;;5.40;;
17965;SDS011;9108;53.204;10.424;2023-03-24T06:53:21;10.13;;;5.95;;
17965;SDS011;9108;53.204;10.424;2023-03-24T06:55:49;9.10;;;6.10;;
17965;SDS011;9108;53.204;10.424;2023-03-24T06:58:38;9.73;;;6.25;;
17965;SDS011;9108;53.204;10.424;2023-03-24T07:01:15;9.35;;;6.00;;
17965;SDS011;9108;53.204;10.424;2023-03-24T07:03:44;10.48;;;6.13;;
17965;SDS011;9108;53.204;10.424;2023-03-24T07:06:18;9.10;;;5.60;;
17965;SDS011;9108;53.204;10.424;2023-03-24T07:08:49;8.00;;;5.10;;
17965;SDS011;9108;53.204;10.424;2023-03-24T07:11:30;7.28;;;4.50;;
17965;SDS011;9108;53.204;10.424;2023-03-24T07:14:05;7.38;;;4.60;;
17965;SDS011;9108;53.204;10.424;2023-03-24T07:16:39;7.15;;;4.47;;
17965;SDS011;9108;53.204;10.424;2023-03-24T07:19:09;7.25;;;4.07;;
17965;SDS011;9108;53.204;10.424;2023-03-24T07:21:39;6.43;;;4.10;;
17965;SDS011;9108;53.204;10.424;2023-03-24T07:24:07;5.95;;;3.83;;
17965;SDS011;9108;53.204;10.424;2023-03-24T07:26:37;6.72;;;3.97;;
17965;SDS011;9108;53.204;10.424;2023-03-24T07:29:10;5.80;;;3.88;;
17965;SDS011;9108;53.204;10.424;2023-03-24T07:31:43;6.97;;;3.67;;
17965;SDS011;9108;53.204;10.424;2023-03-24T07:34:12;6.43;;;3.60;;
17965;SDS011;9108;53.204;10.424;2023-03-24T07:36:40;5.40;;;3.30;;
17965;SDS011;9108;53.204;10.424;2023-03-24T07:39:16;5.90;;;3.40;;
17965;SDS011;9108;53.204;10.424;2023-03-24T07:41:44;5.07;;;3.38;;
17965;SDS011;9108;53.204;10.424;2023-03-24T07:47:10;5.30;;;3.20;;
17965;SDS011;9108;53.204;10.424;2023-03-24T07:49:51;5.50;;;2.83;;
17965;SDS011;9108;53.204;10.424;2023-03-24T07:52:18;4.60;;;2.80;;
17965;SDS011;9108;53.204;10.424;2023-03-24T07:54:48;4.85;;;2.63;;
17965;SDS011;9108;53.204;10.424;2023-03-24T07:57:22;4.88;;;1.98;;
17965;SDS011;9108;53.204;10.424;2023-03-24T07:59:51;3.75;;;1.85;;
17965;SDS011;9108;53.204;10.424;2023-03-24T08:02:30;3.83;;;1.85;;
17965;SDS011;9108;53.204;10.424;2023-03-24T08:05:03;4.13;;;1.88;;
17965;SDS011;9108;53.204;10.424;2023-03-24T08:07:36;4.45;;;1.40;;
17965;SDS011;9108;53.204;10.424;2023-03-24T08:10:08;3.43;;;1.40;;
17965;SDS011;9108;53.204;10.424;2023-03-24T08:12:43;3.40;;;1.20;;
17965;SDS011;9108;53.204;10.424;2023-03-24T08:15:11;4.25;;;1.17;;
17965;SDS011;9108;53.204;10.424;2023-03-24T08:17:40;2.97;;;1.10;;
17965;SDS011;9108;53.204;10.424;2023-03-24T08:20:08;2.92;;;0.93;;
17965;SDS011;9108;53.204;10.424;2023-03-24T08:22:38;3.53;;;0.90;;
17965;SDS011;9108;53.204;10.424;2023-03-24T08:25:12;3.85;;;1.10;;
17965;SDS011;9108;53.204;10.424;2023-03-24T08:27:49;5.45;;;1.20;;
17965;SDS011;9108;53.204;10.424;2023-03-24T08:30:24;5.45;;;1.30;;
17965;SDS011;9108;53.204;10.424;2023-03-24T08:33:08;8.85;;;1.20;;
17965;SDS011;9108;53.204;10.424;2023-03-24T08:35:38;4.80;;;1.10;;
17965;SDS011;9108;53.204;10.424;2023-03-24T08:38:05;5.38;;;1.20;;
17965;SDS011;9108;53.204;10.424;2023-03-24T08:40:34;6.80;;;1.10;;
17965;SDS011;9108;53.204;10.424;2023-03-24T08:43:11;7.60;;;1.10;;
17965;SDS011;9108;53.204;10.424;2023-03-24T08:45:39;4.50;;;0.90;;
17965;SDS011;9108;53.204;10.424;2023-03-24T08:48:08;4.43;;;1.20;;
17965;SDS011;9108;53.204;10.424;2023-03-24T08:50:40;3.35;;;0.90;;
17965;SDS011;9108;53.204;10.424;2023-03-24T08:53:10;4.28;;;0.90;;
17965;SDS011;9108;53.204;10.424;2023-03-24T08:55:42;4.60;;;1.08;;
17965;SDS011;9108;53.204;10.424;2023-03-24T08:58:14;4.43;;;1.10;;
17965;SDS011;9108;53.204;10.424;2023-03-24T09:00:48;4.40;;;1.10;;
17965;SDS011;9108;53.204;10.424;2023-03-24T09:03:31;4.30;;;0.98;;
17965;SDS011;9108;53.204;10.424;2023-03-24T09:06:03;4.90;;;1.15;;
17965;SDS011;9108;53.204;10.424;2023-03-24T09:08:34;4.07;;;1.10;;
17965;SDS011;9108;53.204;10.424;2023-03-24T09:11:11;4.68;;;1.00;;
17965;SDS011;9108;53.204;10.424;2023-03-24T09:13:46;5.07;;;1.00;;
17965;SDS011;9108;53.204;10.424;2023-03-24T09:16:13;6.50;;;1.35;;
17965;SDS011;9108;53.204;10.424;2023-03-24T09:18:42;4.73;;;1.33;;
17965;SDS011;9108;53.204;10.424;2023-03-24T09:21:16;4.97;;;1.10;;
17965;SDS011;9108;53.204;10.424;2023-03-24T09:23:45;6.47;;;1.02;;
17965;SDS011;9108;53.204;10.424;2023-03-24T09:26:12;7.75;;;1.08;;
17965;SDS011;9108;53.204;10.424;2023-03-24T09:28:40;6.28;;;1.10;;
17965;SDS011;9108;53.204;10.424;2023-03-24T09:31:07;5.43;;;1.25;;
17965;SDS011;9108;53.204;10.424;2023-03-24T09:33:36;5.65;;;1.40;;
17965;SDS011;9108;53.204;10.424;2023-03-24T09:36:05;5.55;;;1.30;;
17965;SDS011;9108;53.204;10.424;2023-03-24T09:38:36;4.97;;;1.17;;
17965;SDS011;9108;53.204;10.424;2023-03-24T09:41:12;5.43;;;1.17;;
17965;SDS011;9108;53.204;10.424;2023-03-24T09:43:41;7.97;;;1.30;;
17965;SDS011;9108;53.204;10.424;2023-03-24T09:46:27;7.13;;;1.45;;
17965;SDS011;9108;53.204;10.424;2023-03-24T09:48:59;5.77;;;1.30;;
17965;SDS011;9108;53.204;10.424;2023-03-24T09:51:32;6.18;;;1.27;;
17965;SDS011;9108;53.204;10.424;2023-03-24T09:54:08;7.40;;;1.48;;
17965;SDS011;9108;53.204;10.424;2023-03-24T09:56:41;7.63;;;1.90;;
17965;SDS011;9108;53.204;10.424;2023-03-24T09:59:15;10.90;;;2.33;;
17965;SDS011;9108;53.204;10.424;2023-03-24T10:01:43;6.43;;;1.52;;
17965;SDS011;9108;53.204;10.424;2023-03-24T10:04:14;7.25;;;1.50;;
17965;SDS011;9108;53.204;10.424;2023-03-24T10:06:47;9.10;;;1.50;;
17965;SDS011;9108;53.204;10.424;2023-03-24T10:09:22;6.30;;;1.30;;
17965;SDS011;9108;53.204;10.424;2023-03-24T10:14:52;8.98;;;1.52;;
17965;SDS011;9108;53.204;10.424;2023-03-24T10:17:49;8.88;;;1.73;;
17965;SDS011;9108;53.204;10.424;2023-03-24T10:20:30;9.90;;;2.00;;
17965;SDS011;9108;53.204;10.424;2023-03-24T10:23:07;10.80;;;1.90;;
17965;SDS011;9108;53.204;10.424;2023-03-24T10:25:44;9.85;;;2.80;;
17965;SDS011;9108;53.204;10.424;2023-03-24T10:28:24;8.27;;;1.83;;
17965;SDS011;9108;53.204;10.424;2023-03-24T10:30:54;6.55;;;2.05;;
17965;SDS011;9108;53.204;10.424;2023-03-24T10:33:23;7.63;;;1.67;;
17965;SDS011;9108;53.204;10.424;2023-03-24T10:36:00;8.73;;;1.60;;
17965;SDS011;9108;53.204;10.424;2023-03-24T10:38:29;5.28;;;1.35;;
17965;SDS011;9108;53.204;10.424;2023-03-24T10:41:00;9.33;;;1.50;;
17965;SDS011;9108;53.204;10.424;2023-03-24T10:43:27;8.00;;;1.50;;
17965;SDS011;9108;53.204;10.424;2023-03-24T10:45:56;7.75;;;1.35;;
17965;SDS011;9108;53.204;10.424;2023-03-24T10:48:41;9.03;;;1.67;;
17965;SDS011;9108;53.204;10.424;2023-03-24T10:51:12;8.77;;;1.92;;
17965;SDS011;9108;53.204;10.424;2023-03-24T10:53:45;10.40;;;1.63;;
17965;SDS011;9108;53.204;10.424;2023-03-24T10:59:00;8.70;;;1.70;;
17965;SDS011;9108;53.204;10.424;2023-03-24T11:01:28;8.18;;;1.63;;
17965;SDS011;9108;53.204;10.424;2023-03-24T11:03:57;8.15;;;1.73;;
17965;SDS011;9108;53.204;10.424;2023-03-24T11:06:29;7.95;;;1.65;;
17965;SDS011;9108;53.204;10.424;2023-03-24T11:09:16;10.13;;;1.80;;
17965;SDS011;9108;53.204;10.424;2023-03-24T11:11:44;7.18;;;1.63;;
17965;SDS011;9108;53.204;10.424;2023-03-24T11:14:17;8.43;;;1.80;;
17965;SDS011;9108;53.204;10.424;2023-03-24T11:16:47;8.48;;;1.65;;
17965;SDS011;9108;53.204;10.424;2023-03-24T11:19:16;7.78;;;1.58;;
17965;SDS011;9108;53.204;10.424;2023-03-24T11:21:47;9.50;;;1.60;;
17965;SDS011;9108;53.204;10.424;2023-03-24T11:24:22;7.38;;;1.60;;
17965;SDS011;9108;53.204;10.424;2023-03-24T11:26:53;8.80;;;1.73;;
17965;SDS011;9108;53.204;10.424;2023-03-24T11:29:23;10.73;;;1.60;;
17965;SDS011;9108;53.204;10.424;2023-03-24T11:31:53;9.35;;;1.67;;
17965;SDS011;9108;53.204;10.424;2023-03-24T11:34:21;7.97;;;1.50;;
17965;SDS011;9108;53.204;10.424;2023-03-24T11:36:51;10.23;;;2.20;;
17965;SDS011;9108;53.204;10.424;2023-03-24T11:39:20;9.73;;;2.08;;
17965;SDS011;9108;53.204;10.424;2023-03-24T11:42:01;8.75;;;1.80;;
17965;SDS011;9108;53.204;10.424;2023-03-24T11:44:30;9.23;;;1.95;;
17965;SDS011;9108;53.204;10.424;2023-03-24T11:46:59;9.38;;;1.80;;
17965;SDS011;9108;53.204;10.424;2023-03-24T11:49:29;9.40;;;1.60;;
17965;SDS011;9108;53.204;10.424;2023-03-24T11:52:06;11.18;;;1.80;;
17965;SDS011;9108;53.204;10.424;2023-03-24T11:54:38;8.68;;;1.60;;
17965;SDS011;9108;53.204;10.424;2023-03-24T11:57:12;9.40;;;1.80;;
17965;SDS011;9108;53.204;10.424;2023-03-24T11:59:47;9.77;;;1.90;;
17965;SDS011;9108;53.204;10.424;2023-03-24T12:02:21;8.63;;;1.70;;
17965;SDS011;9108;53.204;10.424;2023-03-24T12:05:01;9.68;;;1.98;;
17965;SDS011;9108;53.204;10.424;2023-03-24T12:07:40;12.35;;;1.77;;
17965;SDS011;9108;53.204;10.424;2023-03-24T12:10:12;8.90;;;1.83;;
17965;SDS011;9108;53.204;10.424;2023-03-24T12:12:47;9.77;;;1.80;;
17965;SDS011;9108;53.204;10.424;2023-03-24T12:15:30;9.07;;;1.80;;
17965;SDS011;9108;53.204;10.424;2023-03-24T12:18:09;7.32;;;1.77;;
17965;SDS011;9108;53.204;10.424;2023-03-24T12:20:43;9.43;;;2.13;;
17965;SDS011;9108;53.204;10.424;2023-03-24T12:23:23;10.53;;;1.90;;
17965;SDS011;9108;53.204;10.424;2023-03-24T12:26:01;9.38;;;1.85;;
17965;SDS011;9108;53.204;10.424;2023-03-24T12:28:38;9.88;;;1.92;;
17965;SDS011;9108;53.204;10.424;2023-03-24T12:31:12;7.50;;;1.80;;
17965;SDS011;9108;53.204;10.424;2023-03-24T12:33:49;13.55;;;2.00;;
17965;SDS011;9108;53.204;10.424;2023-03-24T12:36:26;13.18;;;1.92;;
17965;SDS011;9108;53.204;10.424;2023-03-24T12:39:00;10.43;;;1.90;;
17965;SDS011;9108;53.204;10.424;2023-03-24T12:41:34;11.93;;;2.25;;
17965;SDS011;9108;53.204;10.424;2023-03-24T12:44:12;12.77;;;1.70;;
17965;SDS011;9108;53.204;10.424;2023-03-24T12:46:53;10.68;;;2.38;;
17965;SDS011;9108;53.204;10.424;2023-03-24T12:49:26;11.13;;;2.05;;
17965;SDS011;9108;53.204;10.424;2023-03-24T12:52:00;12.15;;;2.33;;
17965;SDS011;9108;53.204;10.424;2023-03-24T12:54:34;10.40;;;2.10;;
17965;SDS011;9108;53.204;10.424;2023-03-24T12:57:06;11.93;;;2.20;;
17965;SDS011;9108;53.204;10.424;2023-03-24T12:59:38;12.07;;;2.20;;
17965;SDS011;9108;53.204;10.424;2023-03-24T13:02:08;11.55;;;2.20;;
17965;SDS011;9108;53.204;10.424;2023-03-24T13:04:38;8.30;;;1.90;;
17965;SDS011;9108;53.204;10.424;2023-03-24T13:07:08;12.60;;;2.00;;
17965;SDS011;9108;53.204;10.424;2023-03-24T13:09:41;10.85;;;2.20;;
17965;SDS011;9108;53.204;10.424;2023-03-24T13:12:11;9.10;;;1.80;;
17965;SDS011;9108;53.204;10.424;2023-03-24T13:14:45;10.23;;;2.00;;
17965;SDS011;9108;53.204;10.424;2023-03-24T13:17:16;10.23;;;2.00;;
17965;SDS011;9108;53.204;10.424;2023-03-24T13:19:50;10.43;;;2.40;;
17965;SDS011;9108;53.204;10.424;2023-03-24T13:22:19;10.98;;;2.00;;
17965;SDS011;9108;53.204;10.424;2023-03-24T13:24:49;11.68;;;1.90;;
17965;SDS011;9108;53.204;10.424;2023-03-24T13:27:18;8.65;;;1.85;;
17965;SDS011;9108;53.204;10.424;2023-03-24T13:29:53;9.73;;;1.98;;
17965;SDS011;9108;53.204;10.424;2023-03-24T13:32:26;10.77;;;2.00;;
17965;SDS011;9108;53.204;10.424;2023-03-24T13:34:57;10.02;;;2.03;;
17965;SDS011;9108;53.204;10.424;2023-03-24T13:37:27;10.83;;;2.10;;
17965;SDS011;9108;53.204;10.424;2023-03-24T13:40:00;12.35;;;2.13;;
17965;SDS011;9108;53.204;10.424;2023-03-24T13:42:35;9.55;;;1.98;;
17965;SDS011;9108;53.204;10.424;2023-03-24T13:45:20;11.02;;;2.00;;
17965;SDS011;9108;53.204;10.424;2023-03-24T13:48:05;10.85;;;1.90;;
17965;SDS011;9108;53.204;10.424;2023-03-24T13:53:45;10.18;;;1.83;;
17965;SDS011;9108;53.204;10.424;2023-03-24T13:56:23;7.85;;;1.70;;
17965;SDS011;9108;53.204;10.424;2023-03-24T14:01:36;8.98;;;1.60;;
17965;SDS011;9108;53.204;10.424;2023-03-24T14:06:56;11.20;;;2.10;;
17965;SDS011;9108;53.204;10.424;2023-03-24T14:09:25;10.52;;;1.90;;
17965;SDS011;9108;53.204;10.424;2023-03-24T14:12:15;11.80;;;1.90;;
17965;SDS011;9108;53.204;10.424;2023-03-24T14:17:31;9.25;;;1.98;;
17965;SDS011;9108;53.204;10.424;2023-03-24T14:20:11;8.93;;;1.90;;
17965;SDS011;9108;53.204;10.424;2023-03-24T14:22:40;9.45;;;1.80;;
17965;SDS011;9108;53.204;10.424;2023-03-24T14:25:17;9.82;;;1.95;;
17965;SDS011;9108;53.204;10.424;2023-03-24T14:27:48;10.68;;;1.85;;
17965;SDS011;9108;53.204;10.424;2023-03-24T14:30:18;8.98;;;1.75;;
17965;SDS011;9108;53.204;10.424;2023-03-24T14:32:55;9.07;;;1.80;;
17965;SDS011;9108;53.204;10.424;2023-03-24T14:35:24;9.97;;;1.87;;
17965;SDS011;9108;53.204;10.424;2023-03-24T14:37:53;12.02;;;1.95;;
17965;SDS011;9108;53.204;10.424;2023-03-24T14:40:25;12.75;;;2.20;;
17965;SDS011;9108;53.204;10.424;2023-03-24T14:42:53;10.00;;;1.90;;
17965;SDS011;9108;53.204;10.424;2023-03-24T14:48:22;10.70;;;2.17;;
17965;SDS011;9108;53.204;10.424;2023-03-24T14:50:51;9.35;;;1.90;;
17965;SDS011;9108;53.204;10.424;2023-03-24T14:53:20;10.65;;;2.10;;
17965;SDS011;9108;53.204;10.424;2023-03-24T14:55:48;9.82;;;1.75;;
17965;SDS011;9108;53.204;10.424;2023-03-24T14:58:18;11.40;;;2.10;;
17965;SDS011;9108;53.204;10.424;2023-03-24T15:00:47;11.50;;;2.20;;
17965;SDS011;9108;53.204;10.424;2023-03-24T15:03:20;10.95;;;2.20;;
17965;SDS011;9108;53.204;10.424;2023-03-24T15:05:50;10.90;;;2.08;;
17965;SDS011;9108;53.204;10.424;2023-03-24T15:08:18;10.47;;;2.20;;
17965;SDS011;9108;53.204;10.424;2023-03-24T15:10:47;10.83;;;2.00;;
17965;SDS011;9108;53.204;10.424;2023-03-24T15:13:26;9.68;;;2.03;;
17965;SDS011;9108;53.204;10.424;2023-03-24T15:15:54;10.82;;;1.90;;
17965;SDS011;9108;53.204;10.424;2023-03-24T15:18:21;11.25;;;2.03;;
17965;SDS011;9108;53.204;10.424;2023-03-24T15:20:51;9.70;;;2.15;;
17965;SDS011;9108;53.204;10.424;2023-03-24T15:23:19;13.18;;;2.20;;
17965;SDS011;9108;53.204;10.424;2023-03-24T15:25:47;11.35;;;2.17;;
17965;SDS011;9108;53.204;10.424;2023-03-24T15:28:16;9.07;;;1.95;;
17965;SDS011;9108;53.204;10.424;2023-03-24T15:30:45;9.90;;;1.90;;
17965;SDS011;9108;53.204;10.424;2023-03-24T15:33:12;11.68;;;1.98;;
17965;SDS011;9108;53.204;10.424;2023-03-24T15:35:43;14.00;;;2.00;;
17965;SDS011;9108;53.204;10.424;2023-03-24T15:38:26;12.40;;;2.25;;
17965;SDS011;9108;53.204;10.424;2023-03-24T15:40:55;10.77;;;2.20;;
17965;SDS011;9108;53.204;10.424;2023-03-24T15:43:23;11.65;;;2.35;;
17965;SDS011;9108;53.204;10.424;2023-03-24T15:45:53;13.25;;;2.30;;
17965;SDS011;9108;53.204;10.424;2023-03-24T15:48:49;12.23;;;2.50;;
17965;SDS011;9108;53.204;10.424;2023-03-24T15:51:17;11.38;;;1.85;;
17965;SDS011;9108;53.204;10.424;2023-03-24T15:53:46;9.45;;;2.13;;
17965;SDS011;9108;53.204;10.424;2023-03-24T15:56:16;9.77;;;1.77;;
17965;SDS011;9108;53.204;10.424;2023-03-24T15:58:44;9.95;;;1.70;;
17965;SDS011;9108;53.204;10.424;2023-03-24T16:01:11;9.32;;;1.90;;
17965;SDS011;9108;53.204;10.424;2023-03-24T16:03:41;10.52;;;2.10;;